sensor_id;sensor_type;location;lat;lon;timestamp;temperature;humidity
14016;DHT22;7083;48.854;9.158;2023-08-06T00:00:20;14.80;99.90
14016;DHT22;7083;48.854;9.158;2023-08-06T00:02:47;14.80;99.90
14016;DHT22;7083;48.854;9.158;2023-08-06T00:05:14;14.70;99.90
14016;DHT22;7083;48.854;9.158;2023-08-06T00:07:43;14.70;99.90
14016;DHT22;7083;48.854;9.158;2023-08-06T00:10:11;14.60;99.90
14016;DHT22;7083;48.854;9.158;2023-08-06T00:12:38;14.60;99.90
14016;DHT22;7083;48.854;9.158;2023-08-06T00:15:05;14.60;99.90
14016;DHT22;7083;48.854;9.158;2023-08-06T00:17:33;14.60;99.90
14016;DHT22;7083;48.854;9.158;2023-08-06T00:20:00;14.60;99.90
14016;DHT22;7083;48.854;9.158;2023-08-06T00:22:30;14.60;99.90
14016;DHT22;7083;48.854;9.158;2023-08-06T00:24:56;14.50;99.90
14016;DHT22;7083;48.854;9.158;2023-08-06T00:27:25;14.40;99.90
14016;DHT22;7083;48.854;9.158;2023-08-06T00:29:51;14.30;99.90
14016;DHT22;7083;48.854;9.158;2023-08-06T00:32:18;14.20;99.90
14016;DHT22;7083;48.854;9.158;2023-08-06T00:34:45;14.10;99.90
14016;DHT22;7083;48.854;9.158;2023-08-06T00:37:12;14.00;99.90
14016;DHT22;7083;48.854;9.158;2023-08-06T00:39:38;13.90;99.90
14016;DHT22;7083;48.854;9.158;2023-08-06T00:42:05;13.80;99.90
14016;DHT22;7083;48.854;9.158;2023-08-06T00:44:33;13.80;99.90
14016;DHT22;7083;48.854;9.158;2023-08-06T00:47:00;13.80;99.90
14016;DHT22;7083;48.854;9.158;2023-08-06T00:49:27;13.70;99.90
14016;DHT22;7083;48.854;9.158;2023-08-06T00:51:55;13.70;99.90
14016;DHT22;7083;48.854;9.158;2023-08-06T00:54:23;13.60;99.90
14016;DHT22;7083;48.854;9.158;2023-08-06T00:56:51;13.60;99.90
14016;DHT22;7083;48.854;9.158;2023-08-06T00:59:18;13.50;99.90
14016;DHT22;7083;48.854;9.158;2023-08-06T01:01:46;13.50;99.90
14016;DHT22;7083;48.854;9.158;2023-08-06T01:04:15;13.40;99.90
14016;DHT22;7083;48.854;9.158;2023-08-06T01:06:46;13.40;99.90
14016;DHT22;7083;48.854;9.158;2023-08-06T01:09:23;13.30;99.90
14016;DHT22;7083;48.854;9.158;2023-08-06T01:11:59;13.30;99.90
14016;DHT22;7083;48.854;9.158;2023-08-06T01:14:38;13.20;99.90
14016;DHT22;7083;48.854;9.158;2023-08-06T01:17:08;13.10;99.90
14016;DHT22;7083;48.854;9.158;2023-08-06T01:19:36;13.10;99.90
14016;DHT22;7083;48.854;9.158;2023-08-06T01:22:04;13.00;99.90
14016;DHT22;7083;48.854;9.158;2023-08-06T01:24:31;12.90;99.90
14016;DHT22;7083;48.854;9.158;2023-08-06T01:27:04;12.90;99.90
14016;DHT22;7083;48.854;9.158;2023-08-06T01:29:36;12.90;99.90
14016;DHT22;7083;48.854;9.158;2023-08-06T01:32:05;13.00;99.90
14016;DHT22;7083;48.854;9.158;2023-08-06T01:34:34;12.90;99.90
14016;DHT22;7083;48.854;9.158;2023-08-06T01:37:01;13.00;99.90
14016;DHT22;7083;48.854;9.158;2023-08-06T01:39:33;12.90;99.90
14016;DHT22;7083;48.854;9.158;2023-08-06T01:42:00;12.90;99.90
14016;DHT22;7083;48.854;9.158;2023-08-06T01:44:26;12.90;99.90
14016;DHT22;7083;48.854;9.158;2023-08-06T01:46:53;12.80;99.90
14016;DHT22;7083;48.854;9.158;2023-08-06T01:49:20;12.80;99.90
14016;DHT22;7083;48.854;9.158;2023-08-06T01:51:46;12.80;99.90
14016;DHT22;7083;48.854;9.158;2023-08-06T01:54:13;12.80;99.90
14016;DHT22;7083;48.854;9.158;2023-08-06T01:56:41;12.80;99.90
14016;DHT22;7083;48.854;9.158;2023-08-06T01:59:08;12.80;99.90
14016;DHT22;7083;48.854;9.158;2023-08-06T02:01:35;12.80;99.90
14016;DHT22;7083;48.854;9.158;2023-08-06T02:04:01;12.70;99.90
14016;DHT22;7083;48.854;9.158;2023-08-06T02:06:28;12.70;99.90
14016;DHT22;7083;48.854;9.158;2023-08-06T02:08:55;12.80;99.90
14016;DHT22;7083;48.854;9.158;2023-08-06T02:11:22;12.70;99.90
14016;DHT22;7083;48.854;9.158;2023-08-06T02:13:50;12.70;99.90
14016;DHT22;7083;48.854;9.158;2023-08-06T02:16:17;12.70;99.90
14016;DHT22;7083;48.854;9.158;2023-08-06T02:18:43;12.70;99.90
14016;DHT22;7083;48.854;9.158;2023-08-06T02:21:10;12.70;99.90
14016;DHT22;7083;48.854;9.158;2023-08-06T02:23:37;12.70;99.90
14016;DHT22;7083;48.854;9.158;2023-08-06T02:26:04;12.70;99.90
14016;DHT22;7083;48.854;9.158;2023-08-06T02:28:31;12.60;99.90
14016;DHT22;7083;48.854;9.158;2023-08-06T02:30:59;12.60;99.90
14016;DHT22;7083;48.854;9.158;2023-08-06T02:33:26;12.50;99.90
14016;DHT22;7083;48.854;9.158;2023-08-06T02:35:59;12.50;99.90
14016;DHT22;7083;48.854;9.158;2023-08-06T02:38:26;12.50;99.90
14016;DHT22;7083;48.854;9.158;2023-08-06T02:40:52;12.50;99.90
14016;DHT22;7083;48.854;9.158;2023-08-06T02:43:19;12.50;99.90
14016;DHT22;7083;48.854;9.158;2023-08-06T02:45:46;12.40;99.90
14016;DHT22;7083;48.854;9.158;2023-08-06T02:48:14;12.40;99.90
14016;DHT22;7083;48.854;9.158;2023-08-06T02:50:41;12.30;99.90
14016;DHT22;7083;48.854;9.158;2023-08-06T02:53:08;12.30;99.90
14016;DHT22;7083;48.854;9.158;2023-08-06T02:55:35;12.20;99.90
14016;DHT22;7083;48.854;9.158;2023-08-06T02:58:02;12.20;99.90
14016;DHT22;7083;48.854;9.158;2023-08-06T03:00:29;12.20;99.90
14016;DHT22;7083;48.854;9.158;2023-08-06T03:02:56;12.10;99.90
14016;DHT22;7083;48.854;9.158;2023-08-06T03:05:23;12.20;99.90
14016;DHT22;7083;48.854;9.158;2023-08-06T03:07:50;12.20;99.90
14016;DHT22;7083;48.854;9.158;2023-08-06T03:10:17;12.20;99.90
14016;DHT22;7083;48.854;9.158;2023-08-06T03:12:45;12.20;99.90
14016;DHT22;7083;48.854;9.158;2023-08-06T03:15:12;12.30;99.90
14016;DHT22;7083;48.854;9.158;2023-08-06T03:17:38;12.40;99.90
14016;DHT22;7083;48.854;9.158;2023-08-06T03:20:06;12.40;99.90
14016;DHT22;7083;48.854;9.158;2023-08-06T03:22:34;12.40;99.90
14016;DHT22;7083;48.854;9.158;2023-08-06T03:25:01;12.50;99.90
14016;DHT22;7083;48.854;9.158;2023-08-06T03:27:28;12.50;99.90
14016;DHT22;7083;48.854;9.158;2023-08-06T03:29:54;12.60;99.90
14016;DHT22;7083;48.854;9.158;2023-08-06T03:32:21;12.70;99.90
14016;DHT22;7083;48.854;9.158;2023-08-06T03:34:48;12.70;99.90
14016;DHT22;7083;48.854;9.158;2023-08-06T03:37:14;12.70;99.90
14016;DHT22;7083;48.854;9.158;2023-08-06T03:39:42;12.80;99.90
14016;DHT22;7083;48.854;9.158;2023-08-06T03:42:09;12.80;99.90
14016;DHT22;7083;48.854;9.158;2023-08-06T03:44:36;12.90;99.90
14016;DHT22;7083;48.854;9.158;2023-08-06T03:47:03;12.90;99.90
14016;DHT22;7083;48.854;9.158;2023-08-06T03:49:30;12.90;99.90
14016;DHT22;7083;48.854;9.158;2023-08-06T03:51:56;12.90;99.90
14016;DHT22;7083;48.854;9.158;2023-08-06T03:54:23;12.90;99.90
14016;DHT22;7083;48.854;9.158;2023-08-06T03:56:51;12.90;99.90
14016;DHT22;7083;48.854;9.158;2023-08-06T03:59:18;13.00;99.90
14016;DHT22;7083;48.854;9.158;2023-08-06T04:01:44;13.00;99.90
14016;DHT22;7083;48.854;9.158;2023-08-06T04:04:11;13.00;99.90
14016;DHT22;7083;48.854;9.158;2023-08-06T04:06:38;13.00;99.90
14016;DHT22;7083;48.854;9.158;2023-08-06T04:09:04;13.40;99.90
14016;DHT22;7083;48.854;9.158;2023-08-06T04:11:31;13.10;99.90
14016;DHT22;7083;48.854;9.158;2023-08-06T04:13:59;13.10;99.90
14016;DHT22;7083;48.854;9.158;2023-08-06T04:16:26;13.10;99.90
14016;DHT22;7083;48.854;9.158;2023-08-06T04:18:52;13.10;99.90
14016;DHT22;7083;48.854;9.158;2023-08-06T04:21:21;13.10;99.90
14016;DHT22;7083;48.854;9.158;2023-08-06T04:23:47;13.10;99.90
14016;DHT22;7083;48.854;9.158;2023-08-06T04:26:14;13.10;99.90
14016;DHT22;7083;48.854;9.158;2023-08-06T04:28:41;13.10;99.90
14016;DHT22;7083;48.854;9.158;2023-08-06T04:31:09;13.10;99.90
14016;DHT22;7083;48.854;9.158;2023-08-06T04:33:35;13.20;99.90
14016;DHT22;7083;48.854;9.158;2023-08-06T04:36:02;13.20;99.90
14016;DHT22;7083;48.854;9.158;2023-08-06T04:38:29;13.10;99.90
14016;DHT22;7083;48.854;9.158;2023-08-06T04:40:56;13.10;99.90
14016;DHT22;7083;48.854;9.158;2023-08-06T04:43:22;13.20;99.90
14016;DHT22;7083;48.854;9.158;2023-08-06T04:45:50;13.10;99.90
14016;DHT22;7083;48.854;9.158;2023-08-06T04:48:20;13.10;99.90
14016;DHT22;7083;48.854;9.158;2023-08-06T04:50:47;13.00;99.90
14016;DHT22;7083;48.854;9.158;2023-08-06T04:53:15;13.00;99.90
14016;DHT22;7083;48.854;9.158;2023-08-06T04:55:42;13.00;99.90
14016;DHT22;7083;48.854;9.158;2023-08-06T04:58:09;13.00;99.90
14016;DHT22;7083;48.854;9.158;2023-08-06T05:00:36;12.90;99.90
14016;DHT22;7083;48.854;9.158;2023-08-06T05:03:03;13.00;99.90
14016;DHT22;7083;48.854;9.158;2023-08-06T05:05:31;13.00;99.90
14016;DHT22;7083;48.854;9.158;2023-08-06T05:07:58;13.10;99.90
14016;DHT22;7083;48.854;9.158;2023-08-06T05:10:24;13.20;99.90
14016;DHT22;7083;48.854;9.158;2023-08-06T05:12:51;13.20;99.90
14016;DHT22;7083;48.854;9.158;2023-08-06T05:15:18;13.30;99.90
14016;DHT22;7083;48.854;9.158;2023-08-06T05:17:45;13.30;99.90
14016;DHT22;7083;48.854;9.158;2023-08-06T05:20:11;13.40;99.90
14016;DHT22;7083;48.854;9.158;2023-08-06T05:22:39;13.40;99.90
14016;DHT22;7083;48.854;9.158;2023-08-06T05:25:07;13.50;99.90
14016;DHT22;7083;48.854;9.158;2023-08-06T05:27:34;13.60;99.90
14016;DHT22;7083;48.854;9.158;2023-08-06T05:30:00;13.70;99.90
14016;DHT22;7083;48.854;9.158;2023-08-06T05:32:27;13.80;99.90
14016;DHT22;7083;48.854;9.158;2023-08-06T05:34:54;13.90;99.90
14016;DHT22;7083;48.854;9.158;2023-08-06T05:37:20;14.00;99.90
14016;DHT22;7083;48.854;9.158;2023-08-06T05:39:48;14.10;99.90
14016;DHT22;7083;48.854;9.158;2023-08-06T05:42:15;14.20;99.90
14016;DHT22;7083;48.854;9.158;2023-08-06T05:44:42;14.30;99.90
14016;DHT22;7083;48.854;9.158;2023-08-06T05:47:09;14.40;99.90
14016;DHT22;7083;48.854;9.158;2023-08-06T05:49:36;14.40;99.90
14016;DHT22;7083;48.854;9.158;2023-08-06T05:52:03;14.30;99.90
14016;DHT22;7083;48.854;9.158;2023-08-06T05:54:31;14.40;99.90
14016;DHT22;7083;48.854;9.158;2023-08-06T05:56:59;14.50;99.90
14016;DHT22;7083;48.854;9.158;2023-08-06T05:59:26;14.50;99.90
14016;DHT22;7083;48.854;9.158;2023-08-06T06:01:52;14.50;99.90
14016;DHT22;7083;48.854;9.158;2023-08-06T06:04:20;14.40;99.90
14016;DHT22;7083;48.854;9.158;2023-08-06T06:06:47;14.40;99.90
14016;DHT22;7083;48.854;9.158;2023-08-06T06:09:13;14.40;99.90
14016;DHT22;7083;48.854;9.158;2023-08-06T06:11:40;14.40;99.90
14016;DHT22;7083;48.854;9.158;2023-08-06T06:14:08;14.40;99.90
14016;DHT22;7083;48.854;9.158;2023-08-06T06:16:35;14.30;99.90
14016;DHT22;7083;48.854;9.158;2023-08-06T06:19:01;14.30;99.90
14016;DHT22;7083;48.854;9.158;2023-08-06T06:21:28;14.30;99.90
14016;DHT22;7083;48.854;9.158;2023-08-06T06:23:55;14.20;99.90
14016;DHT22;7083;48.854;9.158;2023-08-06T06:26:22;14.10;99.90
14016;DHT22;7083;48.854;9.158;2023-08-06T06:28:48;14.00;99.90
14016;DHT22;7083;48.854;9.158;2023-08-06T06:31:16;14.00;99.90
14016;DHT22;7083;48.854;9.158;2023-08-06T06:33:43;14.00;99.90
14016;DHT22;7083;48.854;9.158;2023-08-06T06:36:10;14.00;99.90
14016;DHT22;7083;48.854;9.158;2023-08-06T06:38:37;13.90;99.90
14016;DHT22;7083;48.854;9.158;2023-08-06T06:41:04;13.80;99.90
14016;DHT22;7083;48.854;9.158;2023-08-06T06:43:30;13.80;99.90
14016;DHT22;7083;48.854;9.158;2023-08-06T06:45:57;13.80;99.90
14016;DHT22;7083;48.854;9.158;2023-08-06T06:48:27;13.80;99.90
14016;DHT22;7083;48.854;9.158;2023-08-06T06:50:54;13.80;99.90
14016;DHT22;7083;48.854;9.158;2023-08-06T06:53:20;13.90;99.90
14016;DHT22;7083;48.854;9.158;2023-08-06T06:55:52;13.90;99.90
14016;DHT22;7083;48.854;9.158;2023-08-06T06:58:19;13.90;99.90
14016;DHT22;7083;48.854;9.158;2023-08-06T07:00:46;13.80;99.90
14016;DHT22;7083;48.854;9.158;2023-08-06T07:03:13;13.80;99.90
14016;DHT22;7083;48.854;9.158;2023-08-06T07:05:41;13.80;99.90
14016;DHT22;7083;48.854;9.158;2023-08-06T07:08:08;13.90;99.90
14016;DHT22;7083;48.854;9.158;2023-08-06T07:10:35;13.90;99.90
14016;DHT22;7083;48.854;9.158;2023-08-06T07:13:01;13.90;99.90
14016;DHT22;7083;48.854;9.158;2023-08-06T07:15:28;13.90;99.90
14016;DHT22;7083;48.854;9.158;2023-08-06T07:17:55;13.90;99.90
14016;DHT22;7083;48.854;9.158;2023-08-06T07:20:21;13.80;99.90
14016;DHT22;7083;48.854;9.158;2023-08-06T07:22:49;13.80;99.90
14016;DHT22;7083;48.854;9.158;2023-08-06T07:25:16;13.80;99.90
14016;DHT22;7083;48.854;9.158;2023-08-06T07:27:43;13.80;99.90
14016;DHT22;7083;48.854;9.158;2023-08-06T07:30:10;13.70;99.90
14016;DHT22;7083;48.854;9.158;2023-08-06T07:32:37;13.70;99.90
14016;DHT22;7083;48.854;9.158;2023-08-06T07:35:05;13.70;99.90
14016;DHT22;7083;48.854;9.158;2023-08-06T07:37:33;13.60;99.90
14016;DHT22;7083;48.854;9.158;2023-08-06T07:40:01;13.60;99.90
14016;DHT22;7083;48.854;9.158;2023-08-06T07:42:29;13.70;99.90
14016;DHT22;7083;48.854;9.158;2023-08-06T07:44:57;13.80;99.90
14016;DHT22;7083;48.854;9.158;2023-08-06T07:47:24;13.90;99.90
14016;DHT22;7083;48.854;9.158;2023-08-06T07:49:52;14.00;99.90
14016;DHT22;7083;48.854;9.158;2023-08-06T07:52:19;14.00;99.90
14016;DHT22;7083;48.854;9.158;2023-08-06T07:54:45;14.10;99.90
14016;DHT22;7083;48.854;9.158;2023-08-06T07:57:13;14.10;99.90
14016;DHT22;7083;48.854;9.158;2023-08-06T07:59:41;14.50;99.90
14016;DHT22;7083;48.854;9.158;2023-08-06T08:02:07;14.30;99.90
14016;DHT22;7083;48.854;9.158;2023-08-06T08:04:34;14.30;99.90
14016;DHT22;7083;48.854;9.158;2023-08-06T08:07:01;14.20;99.90
14016;DHT22;7083;48.854;9.158;2023-08-06T08:09:27;14.40;99.90
14016;DHT22;7083;48.854;9.158;2023-08-06T08:11:54;14.50;99.90
14016;DHT22;7083;48.854;9.158;2023-08-06T08:14:23;14.60;99.90
14016;DHT22;7083;48.854;9.158;2023-08-06T08:19:43;15.00;99.90
14016;DHT22;7083;48.854;9.158;2023-08-06T08:22:11;15.40;99.90
14016;DHT22;7083;48.854;9.158;2023-08-06T08:24:38;16.20;99.90
14016;DHT22;7083;48.854;9.158;2023-08-06T08:27:07;15.60;99.90
14016;DHT22;7083;48.854;9.158;2023-08-06T08:29:35;15.60;99.90
14016;DHT22;7083;48.854;9.158;2023-08-06T08:32:02;15.70;99.90
14016;DHT22;7083;48.854;9.158;2023-08-06T08:34:28;15.70;99.90
14016;DHT22;7083;48.854;9.158;2023-08-06T08:36:55;15.60;99.90
14016;DHT22;7083;48.854;9.158;2023-08-06T08:39:22;15.60;99.90
14016;DHT22;7083;48.854;9.158;2023-08-06T08:41:49;15.50;99.90
14016;DHT22;7083;48.854;9.158;2023-08-06T08:44:17;15.50;99.90
14016;DHT22;7083;48.854;9.158;2023-08-06T08:46:45;15.60;99.90
14016;DHT22;7083;48.854;9.158;2023-08-06T08:49:13;15.70;99.90
14016;DHT22;7083;48.854;9.158;2023-08-06T08:51:40;15.80;99.90
14016;DHT22;7083;48.854;9.158;2023-08-06T08:54:07;15.70;99.90
14016;DHT22;7083;48.854;9.158;2023-08-06T08:56:35;15.60;99.90
14016;DHT22;7083;48.854;9.158;2023-08-06T08:59:02;15.50;99.90
14016;DHT22;7083;48.854;9.158;2023-08-06T09:01:29;15.50;99.90
14016;DHT22;7083;48.854;9.158;2023-08-06T09:03:57;15.40;99.90
14016;DHT22;7083;48.854;9.158;2023-08-06T09:06:26;15.40;99.90
14016;DHT22;7083;48.854;9.158;2023-08-06T09:09:01;15.30;99.90
14016;DHT22;7083;48.854;9.158;2023-08-06T09:11:29;15.20;99.90
14016;DHT22;7083;48.854;9.158;2023-08-06T09:14:05;15.10;99.90
14016;DHT22;7083;48.854;9.158;2023-08-06T09:16:33;15.10;99.90
14016;DHT22;7083;48.854;9.158;2023-08-06T09:19:08;15.10;99.90
14016;DHT22;7083;48.854;9.158;2023-08-06T09:21:37;15.20;99.90
14016;DHT22;7083;48.854;9.158;2023-08-06T09:24:08;15.20;99.90
14016;DHT22;7083;48.854;9.158;2023-08-06T09:26:36;15.60;99.90
14016;DHT22;7083;48.854;9.158;2023-08-06T09:29:05;15.30;99.90
14016;DHT22;7083;48.854;9.158;2023-08-06T09:31:33;15.20;99.90
14016;DHT22;7083;48.854;9.158;2023-08-06T09:34:00;15.20;99.90
14016;DHT22;7083;48.854;9.158;2023-08-06T09:36:28;15.20;99.90
14016;DHT22;7083;48.854;9.158;2023-08-06T09:38:55;15.20;99.90
14016;DHT22;7083;48.854;9.158;2023-08-06T09:41:26;15.10;99.90
14016;DHT22;7083;48.854;9.158;2023-08-06T09:43:54;15.10;99.90
14016;DHT22;7083;48.854;9.158;2023-08-06T09:46:21;15.00;99.90
14016;DHT22;7083;48.854;9.158;2023-08-06T09:48:48;15.00;99.90
14016;DHT22;7083;48.854;9.158;2023-08-06T09:51:17;14.90;99.90
14016;DHT22;7083;48.854;9.158;2023-08-06T09:53:46;14.90;99.90
14016;DHT22;7083;48.854;9.158;2023-08-06T09:56:14;14.90;99.90
14016;DHT22;7083;48.854;9.158;2023-08-06T09:58:42;14.80;99.90
14016;DHT22;7083;48.854;9.158;2023-08-06T10:01:09;14.70;99.90
14016;DHT22;7083;48.854;9.158;2023-08-06T10:03:37;14.70;99.90
14016;DHT22;7083;48.854;9.158;2023-08-06T10:06:05;14.70;99.90
14016;DHT22;7083;48.854;9.158;2023-08-06T10:08:34;14.80;99.90
14016;DHT22;7083;48.854;9.158;2023-08-06T10:11:03;14.90;99.90
14016;DHT22;7083;48.854;9.158;2023-08-06T10:13:31;14.90;99.90
14016;DHT22;7083;48.854;9.158;2023-08-06T10:15:59;15.00;99.90
14016;DHT22;7083;48.854;9.158;2023-08-06T10:18:27;15.10;99.90
14016;DHT22;7083;48.854;9.158;2023-08-06T10:20:54;15.30;99.90
14016;DHT22;7083;48.854;9.158;2023-08-06T10:23:33;15.30;99.90
14016;DHT22;7083;48.854;9.158;2023-08-06T10:26:02;15.30;99.90
14016;DHT22;7083;48.854;9.158;2023-08-06T10:28:34;15.30;99.90
14016;DHT22;7083;48.854;9.158;2023-08-06T10:31:02;15.30;99.90
14016;DHT22;7083;48.854;9.158;2023-08-06T10:33:41;15.30;99.90
14016;DHT22;7083;48.854;9.158;2023-08-06T10:36:09;15.30;99.90
14016;DHT22;7083;48.854;9.158;2023-08-06T10:38:44;15.30;99.90
14016;DHT22;7083;48.854;9.158;2023-08-06T10:41:21;15.30;99.90
14016;DHT22;7083;48.854;9.158;2023-08-06T10:43:48;15.40;99.90
14016;DHT22;7083;48.854;9.158;2023-08-06T10:46:27;15.40;99.90
14016;DHT22;7083;48.854;9.158;2023-08-06T10:48:54;15.40;99.90
14016;DHT22;7083;48.854;9.158;2023-08-06T10:51:20;15.40;99.90
14016;DHT22;7083;48.854;9.158;2023-08-06T10:53:49;15.40;99.90
14016;DHT22;7083;48.854;9.158;2023-08-06T10:56:18;15.20;99.90
14016;DHT22;7083;48.854;9.158;2023-08-06T10:58:46;15.10;99.90
14016;DHT22;7083;48.854;9.158;2023-08-06T11:01:13;14.80;99.90
14016;DHT22;7083;48.854;9.158;2023-08-06T11:03:41;14.60;99.90
14016;DHT22;7083;48.854;9.158;2023-08-06T11:06:08;14.50;99.90
14016;DHT22;7083;48.854;9.158;2023-08-06T11:08:36;14.30;99.90
14016;DHT22;7083;48.854;9.158;2023-08-06T11:11:09;14.10;99.90
14016;DHT22;7083;48.854;9.158;2023-08-06T11:13:39;14.10;99.90
14016;DHT22;7083;48.854;9.158;2023-08-06T11:16:06;14.10;99.90
14016;DHT22;7083;48.854;9.158;2023-08-06T11:18:33;14.20;99.90
14016;DHT22;7083;48.854;9.158;2023-08-06T11:21:00;14.30;99.90
14016;DHT22;7083;48.854;9.158;2023-08-06T11:23:28;14.30;99.90
14016;DHT22;7083;48.854;9.158;2023-08-06T11:25:55;14.30;99.90
14016;DHT22;7083;48.854;9.158;2023-08-06T11:28:22;14.30;99.90
14016;DHT22;7083;48.854;9.158;2023-08-06T11:30:51;14.20;99.90
14016;DHT22;7083;48.854;9.158;2023-08-06T11:33:20;14.20;99.90
14016;DHT22;7083;48.854;9.158;2023-08-06T11:35:48;14.10;99.90
14016;DHT22;7083;48.854;9.158;2023-08-06T11:38:15;14.10;99.90
14016;DHT22;7083;48.854;9.158;2023-08-06T11:40:43;14.00;99.90
14016;DHT22;7083;48.854;9.158;2023-08-06T11:43:10;14.10;99.90
14016;DHT22;7083;48.854;9.158;2023-08-06T11:45:37;13.90;99.90
14016;DHT22;7083;48.854;9.158;2023-08-06T11:48:05;13.80;99.90
14016;DHT22;7083;48.854;9.158;2023-08-06T11:50:37;13.80;99.90
14016;DHT22;7083;48.854;9.158;2023-08-06T11:53:04;13.80;99.90
14016;DHT22;7083;48.854;9.158;2023-08-06T11:55:31;13.70;99.90
14016;DHT22;7083;48.854;9.158;2023-08-06T11:57:59;13.60;99.90
14016;DHT22;7083;48.854;9.158;2023-08-06T12:00:29;13.60;99.90
14016;DHT22;7083;48.854;9.158;2023-08-06T12:02:56;13.60;99.90
14016;DHT22;7083;48.854;9.158;2023-08-06T12:05:29;13.50;99.90
14016;DHT22;7083;48.854;9.158;2023-08-06T12:07:57;13.40;99.90
14016;DHT22;7083;48.854;9.158;2023-08-06T12:10:25;13.40;99.90
14016;DHT22;7083;48.854;9.158;2023-08-06T12:12:53;13.30;99.90
14016;DHT22;7083;48.854;9.158;2023-08-06T12:15:20;13.30;99.90
14016;DHT22;7083;48.854;9.158;2023-08-06T12:17:46;14.20;99.90
14016;DHT22;7083;48.854;9.158;2023-08-06T12:20:13;13.30;99.90
14016;DHT22;7083;48.854;9.158;2023-08-06T12:22:41;13.40;99.90
14016;DHT22;7083;48.854;9.158;2023-08-06T12:25:09;13.40;99.90
14016;DHT22;7083;48.854;9.158;2023-08-06T12:27:38;13.40;99.90
14016;DHT22;7083;48.854;9.158;2023-08-06T12:30:06;13.50;99.90
14016;DHT22;7083;48.854;9.158;2023-08-06T12:32:33;13.50;99.90
14016;DHT22;7083;48.854;9.158;2023-08-06T12:35:00;13.80;99.90
14016;DHT22;7083;48.854;9.158;2023-08-06T12:37:29;13.70;99.90
14016;DHT22;7083;48.854;9.158;2023-08-06T12:39:57;13.70;99.90
14016;DHT22;7083;48.854;9.158;2023-08-06T12:42:24;13.80;99.90
14016;DHT22;7083;48.854;9.158;2023-08-06T12:44:51;13.80;99.90
14016;DHT22;7083;48.854;9.158;2023-08-06T12:47:18;14.00;99.90
14016;DHT22;7083;48.854;9.158;2023-08-06T12:49:45;14.10;99.90
14016;DHT22;7083;48.854;9.158;2023-08-06T12:52:12;14.30;99.90
14016;DHT22;7083;48.854;9.158;2023-08-06T12:54:40;14.40;99.90
14016;DHT22;7083;48.854;9.158;2023-08-06T12:57:08;14.50;99.90
14016;DHT22;7083;48.854;9.158;2023-08-06T12:59:35;14.60;99.90
14016;DHT22;7083;48.854;9.158;2023-08-06T13:02:02;14.60;99.90
14016;DHT22;7083;48.854;9.158;2023-08-06T13:04:29;14.70;99.90
14016;DHT22;7083;48.854;9.158;2023-08-06T13:06:56;16.50;99.90
14016;DHT22;7083;48.854;9.158;2023-08-06T13:09:23;14.90;99.90
14016;DHT22;7083;48.854;9.158;2023-08-06T13:11:50;15.10;99.90
14016;DHT22;7083;48.854;9.158;2023-08-06T13:14:18;15.10;99.90
14016;DHT22;7083;48.854;9.158;2023-08-06T13:16:47;16.40;99.90
14016;DHT22;7083;48.854;9.158;2023-08-06T13:19:14;16.60;99.90
14016;DHT22;7083;48.854;9.158;2023-08-06T13:22:00;17.30;99.90
14016;DHT22;7083;48.854;9.158;2023-08-06T13:24:27;15.90;99.90
14016;DHT22;7083;48.854;9.158;2023-08-06T13:26:54;16.20;99.90
14016;DHT22;7083;48.854;9.158;2023-08-06T13:29:22;16.20;99.90
14016;DHT22;7083;48.854;9.158;2023-08-06T13:31:49;16.10;99.90
14016;DHT22;7083;48.854;9.158;2023-08-06T13:34:15;15.90;99.90
14016;DHT22;7083;48.854;9.158;2023-08-06T13:36:43;15.70;99.90
14016;DHT22;7083;48.854;9.158;2023-08-06T13:39:09;15.60;99.90
14016;DHT22;7083;48.854;9.158;2023-08-06T13:41:37;15.40;99.90
14016;DHT22;7083;48.854;9.158;2023-08-06T13:44:04;15.50;99.90
14016;DHT22;7083;48.854;9.158;2023-08-06T13:46:32;15.50;99.90
14016;DHT22;7083;48.854;9.158;2023-08-06T13:48:59;15.60;99.90
14016;DHT22;7083;48.854;9.158;2023-08-06T13:51:25;15.60;99.90
14016;DHT22;7083;48.854;9.158;2023-08-06T13:53:52;15.50;99.90
14016;DHT22;7083;48.854;9.158;2023-08-06T13:56:19;15.30;99.90
14016;DHT22;7083;48.854;9.158;2023-08-06T13:58:46;15.00;99.90
14016;DHT22;7083;48.854;9.158;2023-08-06T14:01:13;14.80;99.90
14016;DHT22;7083;48.854;9.158;2023-08-06T14:03:41;14.90;99.90
14016;DHT22;7083;48.854;9.158;2023-08-06T14:06:07;14.90;99.90
14016;DHT22;7083;48.854;9.158;2023-08-06T14:08:34;14.70;99.90
14016;DHT22;7083;48.854;9.158;2023-08-06T14:11:01;14.50;99.90
14016;DHT22;7083;48.854;9.158;2023-08-06T14:13:27;14.30;99.90
14016;DHT22;7083;48.854;9.158;2023-08-06T14:15:54;14.20;99.90
14016;DHT22;7083;48.854;9.158;2023-08-06T14:18:21;14.20;99.90
14016;DHT22;7083;48.854;9.158;2023-08-06T14:20:49;14.20;99.90
14016;DHT22;7083;48.854;9.158;2023-08-06T14:23:15;14.30;99.90
14016;DHT22;7083;48.854;9.158;2023-08-06T14:25:42;14.40;99.90
14016;DHT22;7083;48.854;9.158;2023-08-06T14:28:09;14.30;99.90
14016;DHT22;7083;48.854;9.158;2023-08-06T14:30:36;14.30;99.90
14016;DHT22;7083;48.854;9.158;2023-08-06T14:33:03;14.40;99.90
14016;DHT22;7083;48.854;9.158;2023-08-06T14:35:29;14.60;99.90
14016;DHT22;7083;48.854;9.158;2023-08-06T14:37:57;14.90;99.90
14016;DHT22;7083;48.854;9.158;2023-08-06T14:40:24;15.20;99.90
14016;DHT22;7083;48.854;9.158;2023-08-06T14:42:53;15.20;99.90
14016;DHT22;7083;48.854;9.158;2023-08-06T14:45:20;14.90;99.90
14016;DHT22;7083;48.854;9.158;2023-08-06T14:47:47;14.70;99.90
14016;DHT22;7083;48.854;9.158;2023-08-06T14:50:13;14.50;99.90
14016;DHT22;7083;48.854;9.158;2023-08-06T14:52:40;14.50;99.90
14016;DHT22;7083;48.854;9.158;2023-08-06T14:55:08;14.50;99.90
14016;DHT22;7083;48.854;9.158;2023-08-06T14:57:35;14.50;99.90
14016;DHT22;7083;48.854;9.158;2023-08-06T15:00:02;14.50;99.90
14016;DHT22;7083;48.854;9.158;2023-08-06T15:02:29;14.40;99.90
14016;DHT22;7083;48.854;9.158;2023-08-06T15:04:55;14.40;99.90
14016;DHT22;7083;48.854;9.158;2023-08-06T15:07:22;14.20;99.90
14016;DHT22;7083;48.854;9.158;2023-08-06T15:09:49;14.10;99.90
14016;DHT22;7083;48.854;9.158;2023-08-06T15:12:17;14.00;99.90
14016;DHT22;7083;48.854;9.158;2023-08-06T15:14:44;13.90;99.90
14016;DHT22;7083;48.854;9.158;2023-08-06T15:17:11;13.90;99.90
14016;DHT22;7083;48.854;9.158;2023-08-06T15:19:38;13.80;99.90
14016;DHT22;7083;48.854;9.158;2023-08-06T15:22:05;13.80;99.90
14016;DHT22;7083;48.854;9.158;2023-08-06T15:24:32;13.90;99.90
14016;DHT22;7083;48.854;9.158;2023-08-06T15:26:59;13.90;99.90
14016;DHT22;7083;48.854;9.158;2023-08-06T15:29:27;14.00;99.90
14016;DHT22;7083;48.854;9.158;2023-08-06T15:31:53;14.00;99.90
14016;DHT22;7083;48.854;9.158;2023-08-06T15:34:20;14.00;99.90
14016;DHT22;7083;48.854;9.158;2023-08-06T15:36:47;13.90;99.90
14016;DHT22;7083;48.854;9.158;2023-08-06T15:39:13;13.80;99.90
14016;DHT22;7083;48.854;9.158;2023-08-06T15:41:40;13.80;99.90
14016;DHT22;7083;48.854;9.158;2023-08-06T15:44:07;13.80;99.90
14016;DHT22;7083;48.854;9.158;2023-08-06T15:46:35;13.80;99.90
14016;DHT22;7083;48.854;9.158;2023-08-06T15:49:02;13.80;99.90